sensor_id;sensor_type;location;lat;lon;timestamp;temperature;humidity
20839;DHT22;10580;51.092;6.828;2023-04-09T00:02:12;8.00;1.00
20839;DHT22;10580;51.092;6.828;2023-04-09T00:04:38;8.00;1.00
20839;DHT22;10580;51.092;6.828;2023-04-09T00:07:03;8.00;9.70
20839;DHT22;10580;51.092;6.828;2023-04-09T00:09:29;7.90;1.00
20839;DHT22;10580;51.092;6.828;2023-04-09T00:11:54;7.90;1.00
20839;DHT22;10580;51.092;6.828;2023-04-09T00:14:21;7.80;1.00
20839;DHT22;10580;51.092;6.828;2023-04-09T00:16:47;7.80;1.00
20839;DHT22;10580;51.092;6.828;2023-04-09T00:19:12;7.70;1.00
20839;DHT22;10580;51.092;6.828;2023-04-09T00:21:38;7.60;2.30
20839;DHT22;10580;51.092;6.828;2023-04-09T00:24:03;7.50;6.10
20839;DHT22;10580;51.092;6.828;2023-04-09T00:26:30;7.40;9.50
20839;DHT22;10580;51.092;6.828;2023-04-09T00:28:55;7.40;14.80
20839;DHT22;10580;51.092;6.828;2023-04-09T00:31:21;7.30;17.60
20839;DHT22;10580;51.092;6.828;2023-04-09T00:33:46;7.30;19.70
20839;DHT22;10580;51.092;6.828;2023-04-09T00:36:12;7.20;21.40
20839;DHT22;10580;51.092;6.828;2023-04-09T00:38:37;7.30;22.60
20839;DHT22;10580;51.092;6.828;2023-04-09T00:41:03;7.20;23.40
20839;DHT22;10580;51.092;6.828;2023-04-09T00:43:29;7.20;29.40
20839;DHT22;10580;51.092;6.828;2023-04-09T00:45:54;7.20;27.20
20839;DHT22;10580;51.092;6.828;2023-04-09T00:48:20;7.20;22.80
20839;DHT22;10580;51.092;6.828;2023-04-09T00:50:46;7.20;20.80
20839;DHT22;10580;51.092;6.828;2023-04-09T00:53:13;7.10;19.80
20839;DHT22;10580;51.092;6.828;2023-04-09T00:55:39;7.10;19.50
20839;DHT22;10580;51.092;6.828;2023-04-09T00:58:06;7.00;19.20
20839;DHT22;10580;51.092;6.828;2023-04-09T01:00:31;7.00;18.90
20839;DHT22;10580;51.092;6.828;2023-04-09T01:02:58;7.00;20.20
20839;DHT22;10580;51.092;6.828;2023-04-09T01:05:28;7.00;21.40
20839;DHT22;10580;51.092;6.828;2023-04-09T01:10:56;6.90;22.70
20839;DHT22;10580;51.092;6.828;2023-04-09T01:13:32;6.80;22.90
20839;DHT22;10580;51.092;6.828;2023-04-09T01:16:00;6.80;24.50
20839;DHT22;10580;51.092;6.828;2023-04-09T01:21:16;6.70;26.20
20839;DHT22;10580;51.092;6.828;2023-04-09T01:24:26;6.60;26.70
20839;DHT22;10580;51.092;6.828;2023-04-09T01:27:06;6.60;27.20
20839;DHT22;10580;51.092;6.828;2023-04-09T01:29:35;6.60;27.90
20839;DHT22;10580;51.092;6.828;2023-04-09T01:32:05;6.60;29.60
20839;DHT22;10580;51.092;6.828;2023-04-09T01:34:31;6.60;38.40
20839;DHT22;10580;51.092;6.828;2023-04-09T01:36:58;6.50;32.50
20839;DHT22;10580;51.092;6.828;2023-04-09T01:39:25;6.50;33.90
20839;DHT22;10580;51.092;6.828;2023-04-09T01:41:51;6.50;35.30
20839;DHT22;10580;51.092;6.828;2023-04-09T01:44:18;6.50;36.20
20839;DHT22;10580;51.092;6.828;2023-04-09T01:46:49;6.50;36.30
20839;DHT22;10580;51.092;6.828;2023-04-09T01:49:16;6.50;37.00
20839;DHT22;10580;51.092;6.828;2023-04-09T01:51:43;6.40;36.60
20839;DHT22;10580;51.092;6.828;2023-04-09T01:54:08;6.50;36.90
20839;DHT22;10580;51.092;6.828;2023-04-09T01:56:41;6.40;37.60
20839;DHT22;10580;51.092;6.828;2023-04-09T01:59:07;6.50;37.80
20839;DHT22;10580;51.092;6.828;2023-04-09T02:01:37;6.50;37.80
20839;DHT22;10580;51.092;6.828;2023-04-09T02:04:06;6.50;38.60
20839;DHT22;10580;51.092;6.828;2023-04-09T02:06:46;6.40;45.70
20839;DHT22;10580;51.092;6.828;2023-04-09T02:09:14;6.50;36.80
20839;DHT22;10580;51.092;6.828;2023-04-09T02:11:42;6.50;36.10
20839;DHT22;10580;51.092;6.828;2023-04-09T02:14:10;6.50;36.50
20839;DHT22;10580;51.092;6.828;2023-04-09T02:16:38;6.50;35.70
20839;DHT22;10580;51.092;6.828;2023-04-09T02:19:03;6.50;34.90
20839;DHT22;10580;51.092;6.828;2023-04-09T02:21:29;6.50;34.20
20839;DHT22;10580;51.092;6.828;2023-04-09T02:23:56;6.50;32.60
20839;DHT22;10580;51.092;6.828;2023-04-09T02:26:22;6.60;31.30
20839;DHT22;10580;51.092;6.828;2023-04-09T02:28:48;6.60;29.20
20839;DHT22;10580;51.092;6.828;2023-04-09T02:31:14;6.70;26.80
20839;DHT22;10580;51.092;6.828;2023-04-09T02:33:39;6.70;23.90
20839;DHT22;10580;51.092;6.828;2023-04-09T02:36:05;6.70;22.40
20839;DHT22;10580;51.092;6.828;2023-04-09T02:38:31;6.70;21.70
20839;DHT22;10580;51.092;6.828;2023-04-09T02:40:57;6.70;20.20
20839;DHT22;10580;51.092;6.828;2023-04-09T02:43:22;7.10;25.00
20839;DHT22;10580;51.092;6.828;2023-04-09T02:45:48;6.70;12.30
20839;DHT22;10580;51.092;6.828;2023-04-09T02:48:14;6.70;6.90
20839;DHT22;10580;51.092;6.828;2023-04-09T02:50:39;6.70;1.90
20839;DHT22;10580;51.092;6.828;2023-04-09T02:53:05;6.70;1.00
20839;DHT22;10580;51.092;6.828;2023-04-09T02:55:31;6.60;1.00
20839;DHT22;10580;51.092;6.828;2023-04-09T02:57:56;6.50;1.00
20839;DHT22;10580;51.092;6.828;2023-04-09T03:00:22;6.40;1.00
20839;DHT22;10580;51.092;6.828;2023-04-09T03:02:47;6.40;1.00
20839;DHT22;10580;51.092;6.828;2023-04-09T03:05:13;6.40;1.00
20839;DHT22;10580;51.092;6.828;2023-04-09T03:07:38;6.30;2.90
20839;DHT22;10580;51.092;6.828;2023-04-09T03:10:04;6.20;6.40
20839;DHT22;10580;51.092;6.828;2023-04-09T03:12:30;6.20;9.30
20839;DHT22;10580;51.092;6.828;2023-04-09T03:14:56;6.10;11.20
20839;DHT22;10580;51.092;6.828;2023-04-09T03:17:21;6.10;13.40
20839;DHT22;10580;51.092;6.828;2023-04-09T03:19:50;6.10;14.90
20839;DHT22;10580;51.092;6.828;2023-04-09T03:22:15;6.00;15.70
20839;DHT22;10580;51.092;6.828;2023-04-09T03:24:41;6.00;15.90
20839;DHT22;10580;51.092;6.828;2023-04-09T03:27:06;6.00;17.00
20839;DHT22;10580;51.092;6.828;2023-04-09T03:29:32;5.90;19.80
20839;DHT22;10580;51.092;6.828;2023-04-09T03:31:57;5.90;20.80
20839;DHT22;10580;51.092;6.828;2023-04-09T03:34:23;5.90;22.00
20839;DHT22;10580;51.092;6.828;2023-04-09T03:36:48;5.80;21.90
20839;DHT22;10580;51.092;6.828;2023-04-09T03:39:14;5.80;20.90
20839;DHT22;10580;51.092;6.828;2023-04-09T03:41:40;5.80;20.30
20839;DHT22;10580;51.092;6.828;2023-04-09T03:44:05;5.80;21.40
20839;DHT22;10580;51.092;6.828;2023-04-09T03:46:31;5.70;23.70
20839;DHT22;10580;51.092;6.828;2023-04-09T03:48:56;5.80;23.40
20839;DHT22;10580;51.092;6.828;2023-04-09T03:51:22;5.70;20.70
20839;DHT22;10580;51.092;6.828;2023-04-09T03:53:47;5.70;19.30
20839;DHT22;10580;51.092;6.828;2023-04-09T03:56:13;5.70;20.50
20839;DHT22;10580;51.092;6.828;2023-04-09T03:58:38;5.60;21.50
20839;DHT22;10580;51.092;6.828;2023-04-09T04:01:04;5.60;20.70
20839;DHT22;10580;51.092;6.828;2023-04-09T04:03:30;5.60;20.80
20839;DHT22;10580;51.092;6.828;2023-04-09T04:06:00;5.50;21.60
20839;DHT22;10580;51.092;6.828;2023-04-09T04:08:26;5.40;22.90
20839;DHT22;10580;51.092;6.828;2023-04-09T04:10:52;5.50;33.70
20839;DHT22;10580;51.092;6.828;2023-04-09T04:13:17;5.40;28.10
20839;DHT22;10580;51.092;6.828;2023-04-09T04:15:43;5.40;28.00
20839;DHT22;10580;51.092;6.828;2023-04-09T04:18:09;5.40;26.50
20839;DHT22;10580;51.092;6.828;2023-04-09T04:20:35;5.30;24.80
20839;DHT22;10580;51.092;6.828;2023-04-09T04:23:02;5.40;23.60
20839;DHT22;10580;51.092;6.828;2023-04-09T04:25:27;5.30;21.60
20839;DHT22;10580;51.092;6.828;2023-04-09T04:27:53;5.30;20.80
20839;DHT22;10580;51.092;6.828;2023-04-09T04:30:22;5.30;20.60
20839;DHT22;10580;51.092;6.828;2023-04-09T04:32:48;5.30;20.00
20839;DHT22;10580;51.092;6.828;2023-04-09T04:35:14;5.20;19.00
20839;DHT22;10580;51.092;6.828;2023-04-09T04:37:40;5.30;17.50
20839;DHT22;10580;51.092;6.828;2023-04-09T04:40:06;5.30;14.10
20839;DHT22;10580;51.092;6.828;2023-04-09T04:42:33;5.20;12.50
20839;DHT22;10580;51.092;6.828;2023-04-09T04:44:59;5.20;11.10
20839;DHT22;10580;51.092;6.828;2023-04-09T04:47:24;5.20;8.50
20839;DHT22;10580;51.092;6.828;2023-04-09T04:49:50;5.20;5.90
20839;DHT22;10580;51.092;6.828;2023-04-09T04:52:16;5.20;4.40
20839;DHT22;10580;51.092;6.828;2023-04-09T04:54:41;5.20;2.60
20839;DHT22;10580;51.092;6.828;2023-04-09T04:57:07;5.20;1.00
20839;DHT22;10580;51.092;6.828;2023-04-09T04:59:35;5.10;1.00
20839;DHT22;10580;51.092;6.828;2023-04-09T05:02:01;5.10;1.00
20839;DHT22;10580;51.092;6.828;2023-04-09T05:04:26;5.00;1.00
20839;DHT22;10580;51.092;6.828;2023-04-09T05:06:52;5.00;1.00
20839;DHT22;10580;51.092;6.828;2023-04-09T05:09:17;5.00;1.00
20839;DHT22;10580;51.092;6.828;2023-04-09T05:11:43;5.00;1.00
20839;DHT22;10580;51.092;6.828;2023-04-09T05:14:08;5.00;1.00
20839;DHT22;10580;51.092;6.828;2023-04-09T05:16:34;5.00;1.00
20839;DHT22;10580;51.092;6.828;2023-04-09T05:19:00;5.00;1.00
20839;DHT22;10580;51.092;6.828;2023-04-09T05:21:26;5.00;1.00
20839;DHT22;10580;51.092;6.828;2023-04-09T05:23:51;5.00;1.00
20839;DHT22;10580;51.092;6.828;2023-04-09T05:26:17;5.10;1.00
20839;DHT22;10580;51.092;6.828;2023-04-09T05:28:42;5.10;1.00
20839;DHT22;10580;51.092;6.828;2023-04-09T05:31:08;6.40;1.00
20839;DHT22;10580;51.092;6.828;2023-04-09T05:33:37;5.10;1.00
20839;DHT22;10580;51.092;6.828;2023-04-09T05:36:04;5.20;1.00
20839;DHT22;10580;51.092;6.828;2023-04-09T05:38:29;5.30;1.00
20839;DHT22;10580;51.092;6.828;2023-04-09T05:40:55;5.70;14.90
20839;DHT22;10580;51.092;6.828;2023-04-09T05:43:21;7.00;45.20
20839;DHT22;10580;51.092;6.828;2023-04-09T05:45:46;8.60;1.00
20839;DHT22;10580;51.092;6.828;2023-04-09T05:48:12;10.10;1.00
20839;DHT22;10580;51.092;6.828;2023-04-09T05:50:38;11.40;1.00
20839;DHT22;10580;51.092;6.828;2023-04-09T05:53:03;12.50;99.90
20839;DHT22;10580;51.092;6.828;2023-04-09T05:55:30;13.40;1.00
20839;DHT22;10580;51.092;6.828;2023-04-09T05:57:56;14.10;99.90
20839;DHT22;10580;51.092;6.828;2023-04-09T06:00:22;14.70;1.00
20839;DHT22;10580;51.092;6.828;2023-04-09T06:02:48;15.20;1.00
20839;DHT22;10580;51.092;6.828;2023-04-09T06:05:14;15.70;1.00
20839;DHT22;10580;51.092;6.828;2023-04-09T06:07:39;16.20;99.90
20839;DHT22;10580;51.092;6.828;2023-04-09T06:10:06;16.60;99.90
20839;DHT22;10580;51.092;6.828;2023-04-09T06:12:36;15.50;99.90
20839;DHT22;10580;51.092;6.828;2023-04-09T06:15:03;17.40;29.70
20839;DHT22;10580;51.092;6.828;2023-04-09T06:17:29;17.50;1.00
20839;DHT22;10580;51.092;6.828;2023-04-09T06:19:55;18.10;1.00
20839;DHT22;10580;51.092;6.828;2023-04-09T06:22:20;18.30;1.00
20839;DHT22;10580;51.092;6.828;2023-04-09T06:24:46;18.50;1.00
20839;DHT22;10580;51.092;6.828;2023-04-09T06:27:12;18.40;1.00
20839;DHT22;10580;51.092;6.828;2023-04-09T06:29:37;18.90;31.70
20839;DHT22;10580;51.092;6.828;2023-04-09T06:32:04;19.40;1.00
20839;DHT22;10580;51.092;6.828;2023-04-09T06:34:30;19.00;1.00
20839;DHT22;10580;51.092;6.828;2023-04-09T06:36:55;18.10;99.90
20839;DHT22;10580;51.092;6.828;2023-04-09T06:39:21;18.30;99.90
20839;DHT22;10580;51.092;6.828;2023-04-09T07:40:36;20.60;99.90
20839;DHT22;10580;51.092;6.828;2023-04-09T09:11:05;25.30;26.70
20839;DHT22;10580;51.092;6.828;2023-04-09T09:13:31;25.20;20.30
20839;DHT22;10580;51.092;6.828;2023-04-09T09:16:13;25.20;10.20
20839;DHT22;10580;51.092;6.828;2023-04-09T09:18:41;25.30;8.10
20839;DHT22;10580;51.092;6.828;2023-04-09T09:21:14;24.90;1.00
20839;DHT22;10580;51.092;6.828;2023-04-09T09:23:41;24.30;1.00
20839;DHT22;10580;51.092;6.828;2023-04-09T09:26:13;23.80;1.00
20839;DHT22;10580;51.092;6.828;2023-04-09T09:28:45;23.80;1.00
20839;DHT22;10580;51.092;6.828;2023-04-09T09:31:13;23.50;7.40
20839;DHT22;10580;51.092;6.828;2023-04-09T09:33:38;23.40;1.00
20839;DHT22;10580;51.092;6.828;2023-04-09T09:36:04;23.20;92.90
20839;DHT22;10580;51.092;6.828;2023-04-09T09:38:30;23.00;99.90
20839;DHT22;10580;51.092;6.828;2023-04-09T09:40:56;23.40;15.90
20839;DHT22;10580;51.092;6.828;2023-04-09T09:43:23;23.00;1.00
20839;DHT22;10580;51.092;6.828;2023-04-09T09:45:49;22.40;1.00
20839;DHT22;10580;51.092;6.828;2023-04-09T09:48:15;22.00;1.00
20839;DHT22;10580;51.092;6.828;2023-04-09T09:50:45;22.30;1.00
20839;DHT22;10580;51.092;6.828;2023-04-09T09:53:21;21.80;1.00
20839;DHT22;10580;51.092;6.828;2023-04-09T09:55:52;21.10;1.00
20839;DHT22;10580;51.092;6.828;2023-04-09T09:58:27;20.60;1.00
20839;DHT22;10580;51.092;6.828;2023-04-09T10:00:56;19.80;1.00
20839;DHT22;10580;51.092;6.828;2023-04-09T10:03:26;19.80;1.00
20839;DHT22;10580;51.092;6.828;2023-04-09T10:05:54;19.20;1.00
20839;DHT22;10580;51.092;6.828;2023-04-09T10:08:21;18.80;1.00
20839;DHT22;10580;51.092;6.828;2023-04-09T10:10:49;18.40;1.00
20839;DHT22;10580;51.092;6.828;2023-04-09T10:13:25;17.70;1.00
20839;DHT22;10580;51.092;6.828;2023-04-09T10:15:55;16.80;1.00
20839;DHT22;10580;51.092;6.828;2023-04-09T10:18:22;16.50;1.00
20839;DHT22;10580;51.092;6.828;2023-04-09T10:20:58;16.60;1.00
20839;DHT22;10580;51.092;6.828;2023-04-09T10:23:31;16.50;1.00
20839;DHT22;10580;51.092;6.828;2023-04-09T10:25:58;16.50;1.00
20839;DHT22;10580;51.092;6.828;2023-04-09T10:28:32;16.50;1.00
20839;DHT22;10580;51.092;6.828;2023-04-09T10:30:58;16.60;1.00
20839;DHT22;10580;51.092;6.828;2023-04-09T10:33:25;16.80;1.00
20839;DHT22;10580;51.092;6.828;2023-04-09T10:36:03;16.70;1.00
20839;DHT22;10580;51.092;6.828;2023-04-09T10:38:44;16.60;1.00
20839;DHT22;10580;51.092;6.828;2023-04-09T10:41:14;16.50;1.00
20839;DHT22;10580;51.092;6.828;2023-04-09T10:43:42;16.00;1.00
20839;DHT22;10580;51.092;6.828;2023-04-09T10:46:27;15.80;1.00
20839;DHT22;10580;51.092;6.828;2023-04-09T10:49:09;16.00;1.00
20839;DHT22;10580;51.092;6.828;2023-04-09T10:51:36;15.90;1.00
20839;DHT22;10580;51.092;6.828;2023-04-09T10:54:06;15.90;1.00
20839;DHT22;10580;51.092;6.828;2023-04-09T11:01:58;15.90;1.00
20839;DHT22;10580;51.092;6.828;2023-04-09T11:04:37;15.70;1.00
20839;DHT22;10580;51.092;6.828;2023-04-09T11:07:04;15.90;1.00
20839;DHT22;10580;51.092;6.828;2023-04-09T11:09:34;15.80;1.00
20839;DHT22;10580;51.092;6.828;2023-04-09T11:11:59;15.80;1.00
20839;DHT22;10580;51.092;6.828;2023-04-09T11:14:26;16.00;1.00
20839;DHT22;10580;51.092;6.828;2023-04-09T11:16:52;16.00;1.00
20839;DHT22;10580;51.092;6.828;2023-04-09T11:19:19;16.00;1.00
20839;DHT22;10580;51.092;6.828;2023-04-09T11:21:44;15.80;1.00
20839;DHT22;10580;51.092;6.828;2023-04-09T11:24:12;15.60;1.00
20839;DHT22;10580;51.092;6.828;2023-04-09T11:26:37;15.60;1.00
20839;DHT22;10580;51.092;6.828;2023-04-09T11:29:09;15.40;1.00
20839;DHT22;10580;51.092;6.828;2023-04-09T11:31:35;15.30;1.00
20839;DHT22;10580;51.092;6.828;2023-04-09T11:34:02;15.30;1.00
20839;DHT22;10580;51.092;6.828;2023-04-09T11:36:27;15.30;1.00
20839;DHT22;10580;51.092;6.828;2023-04-09T11:38:56;15.30;1.00
20839;DHT22;10580;51.092;6.828;2023-04-09T11:41:36;15.40;1.00
20839;DHT22;10580;51.092;6.828;2023-04-09T11:44:05;16.00;1.00
20839;DHT22;10580;51.092;6.828;2023-04-09T11:46:32;16.70;1.00
20839;DHT22;10580;51.092;6.828;2023-04-09T11:48:58;16.90;1.00
20839;DHT22;10580;51.092;6.828;2023-04-09T11:51:25;16.70;1.00
20839;DHT22;10580;51.092;6.828;2023-04-09T11:53:52;16.70;1.00
20839;DHT22;10580;51.092;6.828;2023-04-09T11:56:17;17.10;1.00
20839;DHT22;10580;51.092;6.828;2023-04-09T11:58:47;17.40;1.00
20839;DHT22;10580;51.092;6.828;2023-04-09T12:01:13;17.00;1.00
20839;DHT22;10580;51.092;6.828;2023-04-09T12:03:40;16.90;1.00
20839;DHT22;10580;51.092;6.828;2023-04-09T12:06:06;16.80;1.00
20839;DHT22;10580;51.092;6.828;2023-04-09T12:08:33;16.60;1.00
20839;DHT22;10580;51.092;6.828;2023-04-09T12:11:11;16.30;1.00
20839;DHT22;10580;51.092;6.828;2023-04-09T12:13:37;16.80;1.00
20839;DHT22;10580;51.092;6.828;2023-04-09T12:16:07;17.30;1.00
20839;DHT22;10580;51.092;6.828;2023-04-09T12:18:38;17.70;1.00
20839;DHT22;10580;51.092;6.828;2023-04-09T12:21:04;17.70;1.00
20839;DHT22;10580;51.092;6.828;2023-04-09T12:23:30;17.20;1.00
20839;DHT22;10580;51.092;6.828;2023-04-09T12:25:56;17.00;1.00
20839;DHT22;10580;51.092;6.828;2023-04-09T12:28:25;16.70;1.00
20839;DHT22;10580;51.092;6.828;2023-04-09T12:30:51;16.80;1.00
20839;DHT22;10580;51.092;6.828;2023-04-09T12:33:16;16.40;1.00
20839;DHT22;10580;51.092;6.828;2023-04-09T12:35:42;16.20;1.00
20839;DHT22;10580;51.092;6.828;2023-04-09T12:38:08;15.80;1.00
20839;DHT22;10580;51.092;6.828;2023-04-09T12:40:38;15.60;1.00
20839;DHT22;10580;51.092;6.828;2023-04-09T12:43:04;15.60;1.00
20839;DHT22;10580;51.092;6.828;2023-04-09T12:45:31;15.60;1.00
20839;DHT22;10580;51.092;6.828;2023-04-09T12:47:57;15.50;1.00
20839;DHT22;10580;51.092;6.828;2023-04-09T12:50:22;15.40;1.00
20839;DHT22;10580;51.092;6.828;2023-04-09T12:52:48;15.50;1.00
20839;DHT22;10580;51.092;6.828;2023-04-09T12:55:17;15.50;1.00
20839;DHT22;10580;51.092;6.828;2023-04-09T12:57:44;15.60;1.00
20839;DHT22;10580;51.092;6.828;2023-04-09T13:00:11;15.70;1.00
20839;DHT22;10580;51.092;6.828;2023-04-09T13:02:37;15.80;1.00
20839;DHT22;10580;51.092;6.828;2023-04-09T13:05:03;15.90;1.00
20839;DHT22;10580;51.092;6.828;2023-04-09T13:07:29;16.00;1.00
20839;DHT22;10580;51.092;6.828;2023-04-09T13:09:55;16.00;1.00
20839;DHT22;10580;51.092;6.828;2023-04-09T13:12:21;16.10;1.00
20839;DHT22;10580;51.092;6.828;2023-04-09T13:14:48;15.80;1.00
20839;DHT22;10580;51.092;6.828;2023-04-09T13:17:14;15.80;1.00
20839;DHT22;10580;51.092;6.828;2023-04-09T13:19:40;15.80;1.00
20839;DHT22;10580;51.092;6.828;2023-04-09T13:22:06;15.70;1.00
20839;DHT22;10580;51.092;6.828;2023-04-09T13:24:34;15.70;1.00
20839;DHT22;10580;51.092;6.828;2023-04-09T13:27:00;15.60;1.00
20839;DHT22;10580;51.092;6.828;2023-04-09T13:29:26;15.60;1.00
20839;DHT22;10580;51.092;6.828;2023-04-09T13:31:54;15.60;8.20
20839;DHT22;10580;51.092;6.828;2023-04-09T13:34:21;15.60;14.60
20839;DHT22;10580;51.092;6.828;2023-04-09T13:36:47;15.60;1.00
20839;DHT22;10580;51.092;6.828;2023-04-09T13:39:12;15.60;1.00
20839;DHT22;10580;51.092;6.828;2023-04-09T13:41:38;15.60;1.00
20839;DHT22;10580;51.092;6.828;2023-04-09T13:44:04;15.80;1.00
20839;DHT22;10580;51.092;6.828;2023-04-09T13:46:30;16.20;1.00
20839;DHT22;10580;51.092;6.828;2023-04-09T13:48:58;16.70;1.00
20839;DHT22;10580;51.092;6.828;2023-04-09T13:51:26;17.10;1.00
20839;DHT22;10580;51.092;6.828;2023-04-09T13:54:09;17.60;1.00
20839;DHT22;10580;51.092;6.828;2023-04-09T13:56:36;17.80;1.00
20839;DHT22;10580;51.092;6.828;2023-04-09T13:59:01;18.00;1.00
20839;DHT22;10580;51.092;6.828;2023-04-09T14:01:28;18.20;1.00
20839;DHT22;10580;51.092;6.828;2023-04-09T14:03:54;17.90;1.00
20839;DHT22;10580;51.092;6.828;2023-04-09T14:06:22;17.40;1.00
20839;DHT22;10580;51.092;6.828;2023-04-09T14:08:48;17.00;1.00
20839;DHT22;10580;51.092;6.828;2023-04-09T14:11:13;16.70;1.00
20839;DHT22;10580;51.092;6.828;2023-04-09T14:13:41;16.70;1.00
20839;DHT22;10580;51.092;6.828;2023-04-09T14:16:07;16.70;1.00
20839;DHT22;10580;51.092;6.828;2023-04-09T14:18:32;16.30;1.00
20839;DHT22;10580;51.092;6.828;2023-04-09T14:21:13;16.10;1.00
20839;DHT22;10580;51.092;6.828;2023-04-09T14:23:46;15.90;1.00
20839;DHT22;10580;51.092;6.828;2023-04-09T14:29:53;15.80;1.00
20839;DHT22;10580;51.092;6.828;2023-04-09T14:32:19;15.80;1.00
20839;DHT22;10580;51.092;6.828;2023-04-09T14:34:45;15.80;1.00
20839;DHT22;10580;51.092;6.828;2023-04-09T14:37:10;16.00;1.00
20839;DHT22;10580;51.092;6.828;2023-04-09T14:39:36;16.30;1.00
20839;DHT22;10580;51.092;6.828;2023-04-09T14:42:02;16.50;1.00
20839;DHT22;10580;51.092;6.828;2023-04-09T14:44:28;16.70;1.00
20839;DHT22;10580;51.092;6.828;2023-04-09T14:46:53;16.80;1.00
20839;DHT22;10580;51.092;6.828;2023-04-09T14:49:20;16.90;1.00
20839;DHT22;10580;51.092;6.828;2023-04-09T14:58:31;16.90;9.30
20839;DHT22;10580;51.092;6.828;2023-04-09T15:00:56;17.10;1.00
20839;DHT22;10580;51.092;6.828;2023-04-09T15:03:22;17.10;1.00
20839;DHT22;10580;51.092;6.828;2023-04-09T15:05:48;17.00;1.00
20839;DHT22;10580;51.092;6.828;2023-04-09T15:08:13;17.00;1.00
20839;DHT22;10580;51.092;6.828;2023-04-09T15:10:39;17.10;1.00
20839;DHT22;10580;51.092;6.828;2023-04-09T15:13:12;16.80;1.00
20839;DHT22;10580;51.092;6.828;2023-04-09T15:15:39;16.80;7.80
20839;DHT22;10580;51.092;6.828;2023-04-09T15:18:05;16.90;9.10
20839;DHT22;10580;51.092;6.828;2023-04-09T15:20:44;16.90;2.20
20839;DHT22;10580;51.092;6.828;2023-04-09T15:23:10;16.60;1.00
20839;DHT22;10580;51.092;6.828;2023-04-09T15:25:36;16.40;1.00
20839;DHT22;10580;51.092;6.828;2023-04-09T15:28:02;16.60;1.00
20839;DHT22;10580;51.092;6.828;2023-04-09T15:30:28;16.60;1.00
20839;DHT22;10580;51.092;6.828;2023-04-09T15:32:53;16.60;1.00
20839;DHT22;10580;51.092;6.828;2023-04-09T15:35:19;16.60;1.00
20839;DHT22;10580;51.092;6.828;2023-04-09T15:37:51;16.70;1.00
20839;DHT22;10580;51.092;6.828;2023-04-09T15:40:17;16.70;1.00
20839;DHT22;10580;51.092;6.828;2023-04-09T15:42:43;16.60;1.00
20839;DHT22;10580;51.092;6.828;2023-04-09T15:45:08;16.60;1.00
20839;DHT22;10580;51.092;6.828;2023-04-09T15:47:43;16.30;1.00
20839;DHT22;10580;51.092;6.828;2023-04-09T15:50:41;16.20;1.00
20839;DHT22;10580;51.092;6.828;2023-04-09T15:53:06;16.30;1.00
20839;DHT22;10580;51.092;6.828;2023-04-09T15:55:32;16.20;1.00
20839;DHT22;10580;51.092;6.828;2023-04-09T15:57:57;16.10;1.00
20839;DHT22;10580;51.092;6.828;2023-04-09T16:00:23;16.10;1.00
20839;DHT22;10580;51.092;6.828;2023-04-09T16:02:49;16.10;1.00
20839;DHT22;10580;51.092;6.828;2023-04-09T16:05:15;15.90;1.00
20839;DHT22;10580;51.092;6.828;2023-04-09T16:07:43;15.80;1.00
20839;DHT22;10580;51.092;6.828;2023-04-09T16:10:09;15.80;1.00
20839;DHT22;10580;51.092;6.828;2023-04-09T16:12:34;15.70;1.00
20839;DHT22;10580;51.092;6.828;2023-04-09T16:15:00;15.60;1.00
20839;DHT22;10580;51.092;6.828;2023-04-09T16:17:25;15.70;1.00
20839;DHT22;10580;51.092;6.828;2023-04-09T16:19:51;15.60;1.00
20839;DHT22;10580;51.092;6.828;2023-04-09T16:22:17;15.60;1.00
20839;DHT22;10580;51.092;6.828;2023-04-09T16:24:42;15.60;1.00
20839;DHT22;10580;51.092;6.828;2023-04-09T16:27:08;15.50;1.00
20839;DHT22;10580;51.092;6.828;2023-04-09T16:29:34;15.50;1.00
20839;DHT22;10580;51.092;6.828;2023-04-09T16:31:59;15.40;1.00
20839;DHT22;10580;51.092;6.828;2023-04-09T16:34:25;15.30;99.90
20839;DHT22;10580;51.092;6.828;2023-04-09T16:36:50;15.20;15.70
20839;DHT22;10580;51.092;6.828;2023-04-09T16:39:19;15.20;98.40
20839;DHT22;10580;51.092;6.828;2023-04-09T16:41:45;14.40;36.80
20839;DHT22;10580;51.092;6.828;2023-04-09T16:44:10;15.00;1.00
20839;DHT22;10580;51.092;6.828;2023-04-09T16:46:36;15.00;1.00
20839;DHT22;10580;51.092;6.828;2023-04-09T16:49:02;15.00;1.00
20839;DHT22;10580;51.092;6.828;2023-04-09T16:51:27;15.00;1.00
20839;DHT22;10580;51.092;6.828;2023-04-09T16:53:53;14.90;1.00
20839;DHT22;10580;51.092;6.828;2023-04-09T16:56:18;14.80;1.00
20839;DHT22;10580;51.092;6.828;2023-04-09T16:58:44;14.80;1.00
20839;DHT22;10580;51.092;6.828;2023-04-09T17:01:11;14.70;1.00
20839;DHT22;10580;51.092;6.828;2023-04-09T17:03:36;14.70;1.00
20839;DHT22;10580;51.092;6.828;2023-04-09T17:06:02;14.50;1.00
20839;DHT22;10580;51.092;6.828;2023-04-09T17:08:29;14.40;1.00
20839;DHT22;10580;51.092;6.828;2023-04-09T17:10:54;14.40;1.00
20839;DHT22;10580;51.092;6.828;2023-04-09T17:13:27;14.30;1.00
20839;DHT22;10580;51.092;6.828;2023-04-09T17:15:53;14.20;1.00
20839;DHT22;10580;51.092;6.828;2023-04-09T17:18:18;14.20;1.00
20839;DHT22;10580;51.092;6.828;2023-04-09T17:20:44;14.20;1.00
20839;DHT22;10580;51.092;6.828;2023-04-09T17:23:09;14.10;1.00
20839;DHT22;10580;51.092;6.828;2023-04-09T17:25:35;14.00;1.00
20839;DHT22;10580;51.092;6.828;2023-04-09T17:28:01;13.90;1.00
20839;DHT22;10580;51.092;6.828;2023-04-09T17:30:27;13.90;1.00
20839;DHT22;10580;51.092;6.828;2023-04-09T17:32:52;13.80;1.00
20839;DHT22;10580;51.092;6.828;2023-04-09T17:35:18;13.80;1.00
20839;DHT22;10580;51.092;6.828;2023-04-09T17:37:43;13.70;1.00
20839;DHT22;10580;51.092;6.828;2023-04-09T17:40:09;13.60;1.00
20839;DHT22;10580;51.092;6.828;2023-04-09T17:42:37;13.60;1.00
20839;DHT22;10580;51.092;6.828;2023-04-09T17:45:03;13.50;1.00
20839;DHT22;10580;51.092;6.828;2023-04-09T17:47:29;13.50;1.00
20839;DHT22;10580;51.092;6.828;2023-04-09T17:49:54;13.40;1.00
20839;DHT22;10580;51.092;6.828;2023-04-09T17:52:20;13.30;1.00
20839;DHT22;10580;51.092;6.828;2023-04-09T17:54:46;13.30;1.00
20839;DHT22;10580;51.092;6.828;2023-04-09T17:57:14;13.20;1.00
20839;DHT22;10580;51.092;6.828;2023-04-09T17:59:40;13.10;1.00
20839;DHT22;10580;51.092;6.828;2023-04-09T18:02:06;13.10;1.00
20839;DHT22;10580;51.092;6.828;2023-04-09T18:04:32;13.00;1.00
20839;DHT22;10580;51.092;6.828;2023-04-09T18:06:58;12.90;1.00
20839;DHT22;10580;51.092;6.828;2023-04-09T18:09:23;12.90;1.00
20839;DHT22;10580;51.092;6.828;2023-04-09T18:11:49;12.80;1.00
20839;DHT22;10580;51.092;6.828;2023-04-09T18:14:21;12.70;1.00
20839;DHT22;10580;51.092;6.828;2023-04-09T18:16:47;12.60;1.00
20839;DHT22;10580;51.092;6.828;2023-04-09T18:19:13;12.50;1.00
20839;DHT22;10580;51.092;6.828;2023-04-09T18:25:11;12.40;1.00
20839;DHT22;10580;51.092;6.828;2023-04-09T18:28:15;12.40;1.00
20839;DHT22;10580;51.092;6.828;2023-04-09T18:30:46;12.20;1.00
20839;DHT22;10580;51.092;6.828;2023-04-09T18:33:12;12.20;1.00
20839;DHT22;10580;51.092;6.828;2023-04-09T18:35:38;12.10;1.00
20839;DHT22;10580;51.092;6.828;2023-04-09T18:38:04;12.10;1.00
20839;DHT22;10580;51.092;6.828;2023-04-09T18:40:39;12.00;1.00